Sakura — JG5711 — position and weather

sailwx.info

Track history (hours):
 
Tides and Currents Weather Stations Pressure Air Temp Water Temp Dewpoint Dewpoint Depression Visibility Wind Speed Wind Dir Waves Ship Positions

Sakura

Last reported at 2015-Mar-06 08:33 UTC. Time now 2015-Mar-06 09:05 UTC.
Position N 35°27' E 139°42'.

Length 32 m; draft 3.6 m.

Type: Tug. MMSI: 431101178.

Date/timePositionNaut miles runAvg speedWind from/ knotsBaromVisibWave heightAir tempDewpointWater temp
2015-Mar-06 08:33N 35°27' E 139°42'1 0.8
2015-Mar-06 07:33N 35°26' E 139°41'2 2.1
2015-Mar-06 06:33N 35°27' E 139°39'0 0.0
2015-Mar-06 05:33N 35°27' E 139°39'0 0.0
2015-Mar-06 04:34N 35°27' E 139°39'0 0.0
2015-Mar-06 03:33N 35°27' E 139°39'0 0.0
2015-Mar-06 02:33N 35°27' E 139°39'0 0.0
2015-Mar-06 01:33N 35°27' E 139°39'0 0.0
2015-Mar-06 00:33N 35°27' E 139°39'0 0.0
2015-Mar-05 23:33N 35°27' E 139°39'0 0.0
2015-Mar-05 22:33N 35°27' E 139°39'0 0.0
2015-Mar-05 07:11N 35°27' E 139°39'0 0.0
2015-Mar-05 06:34N 35°27' E 139°39'1 0.7
2015-Mar-05 05:34N 35°27' E 139°39'1 0.8
2015-Mar-05 04:33N 35°27' E 139°40'3 2.7
2015-Mar-05 03:20N 35°28' E 139°44'1 1.1
2015-Mar-05 02:29N 35°27' E 139°44'1 0.9
2015-Mar-05 01:33N 35°28' E 139°44'0 0.0
2015-Mar-05 00:33N 35°28' E 139°44'0 0.5
2015-Mar-04 23:34N 35°28' E 139°43'4 0.2
2015-Mar-04 07:10N 35°27' E 139°39'0 0.0
2015-Mar-04 06:33N 35°27' E 139°39'0 0.0
2015-Mar-04 05:33N 35°27' E 139°39'0 0.0
2015-Mar-04 04:33N 35°27' E 139°39'2 2.1
2015-Mar-04 03:33N 35°26' E 139°41'2 2.1
2015-Mar-04 02:34N 35°27' E 139°39'0 0.0
2015-Mar-04 01:33N 35°27' E 139°39'0 0.0
2015-Mar-04 00:33N 35°27' E 139°39'0 0.0
2015-Mar-03 23:33N 35°27' E 139°39'0 0.0
2015-Mar-03 22:34N 35°27' E 139°39'0 0.0
2015-Mar-03 21:33N 35°27' E 139°39'0 0.0
2015-Mar-03 20:34N 35°27' E 139°39'0 0.0
2015-Mar-03 07:11N 35°27' E 139°39'0 0.3
2015-Mar-03 06:34N 35°27' E 139°39'2 2.0
2015-Mar-03 05:34N 35°27' E 139°41'2 2.1
2015-Mar-03 04:34N 35°27' E 139°39'0 0.0
2015-Mar-03 03:33N 35°27' E 139°39'0 0.0
2015-Mar-03 02:34N 35°27' E 139°39'0 0.0
2015-Mar-03 01:34N 35°27' E 139°39'0 0.0
2015-Mar-03 00:34N 35°27' E 139°39'0 0.0
2015-Mar-02 23:33N 35°27' E 139°39'3 3.0
2015-Mar-02 22:34N 35°25' E 139°41'2 2.3
2015-Mar-02 21:34N 35°27' E 139°40'1 1.1
2015-Mar-02 20:34N 35°27' E 139°39'1 0.1
2015-Mar-02 07:33N 35°27' E 139°40'3 3.3
2015-Mar-02 06:33N 35°24' E 139°41'1 1.1
2015-Mar-02 05:33N 35°24' E 139°42'4 4.2
2015-Mar-02 04:33N 35°27' E 139°39'0 0.0
2015-Mar-02 03:33N 35°27' E 139°39'0 0.0
2015-Mar-02 02:33N 35°27' E 139°39'0 0.0
2015-Mar-02 01:33N 35°27' E 139°39'4 3.7
2015-Mar-02 00:33N 35°28' E 139°43'0 0.3
2015-Mar-01 23:33N 35°28' E 139°44'0 0.0
2015-Mar-01 22:33N 35°28' E 139°44'2 2.1
2015-Mar-01 21:33N 35°27' E 139°41'1 1.3
2015-Mar-01 20:33N 35°27' E 139°40'0 0.0
2015-Feb-28 11:24N 35°27' E 139°40'6 7.1
2015-Feb-28 10:33N 35°31' E 139°45'0 0.4
2015-Feb-28 09:31N 35°30' E 139°46'0 0.0
2015-Feb-28 08:34N 35°30' E 139°46'2 2.4
2015-Feb-28 07:33N 35°29' E 139°43'2 2.3
2015-Feb-28 06:33N 35°27' E 139°43'2 2.0
2015-Feb-28 05:33N 35°28' E 139°40'0 0.0
2015-Feb-28 04:33N 35°28' E 139°40'0 0.0
2015-Feb-28 03:33N 35°28' E 139°40'0 0.0
2015-Feb-28 02:33N 35°28' E 139°40'1 1.0
2015-Feb-28 01:34N 35°27' E 139°40'1 0.6
2015-Feb-28 00:34N 35°27' E 139°40'0 0.0
2015-Feb-27 23:34N 35°27' E 139°40'1 0.0
2015-Feb-26 23:33N 35°27' E 139°40'4 4.1
2015-Feb-26 22:33N 35°26' E 139°45'3 2.6
2015-Feb-26 21:34N 35°27' E 139°42'0 0.1
2015-Feb-26 20:34N 35°27' E 139°42'2 1.6
2015-Feb-26 19:33N 35°28' E 139°40'0 0.0
2015-Feb-26 18:33N 35°28' E 139°40'0 0.0
2015-Feb-26 17:33N 35°28' E 139°40'1 0.7
2015-Feb-26 16:33N 35°27' E 139°41'1 0.7
2015-Feb-26 15:33N 35°28' E 139°40'0 0.0
2015-Feb-26 14:33N 35°28' E 139°40'0 0.0
2015-Feb-26 13:33N 35°28' E 139°40'0 0.0
2015-Feb-26 12:33N 35°28' E 139°40'1 1.0
2015-Feb-26 11:33N 35°27' E 139°41'0 0.5
2015-Feb-26 10:33N 35°27' E 139°41'2 2.0
2015-Feb-26 09:33N 35°29' E 139°39'1 1.5
2015-Feb-26 08:34N 35°27' E 139°39'0 0.0
2015-Feb-26 07:33N 35°27' E 139°39'0 0.4
2015-Feb-26 06:33N 35°27' E 139°40'1 0.7
2015-Feb-26 05:33N 35°27' E 139°40'1 0.8
2015-Feb-26 04:34N 35°27' E 139°39'0 0.0
2015-Feb-26 03:33N 35°27' E 139°39'0 0.0
2015-Feb-26 02:34N 35°27' E 139°39'2 2.0
2015-Feb-26 01:33N 35°27' E 139°42'4 4.0
2015-Feb-26 00:34N 35°24' E 139°38'3 2.9
2015-Feb-25 23:30N 35°24' E 139°42'3 0.2
2015-Feb-25 07:26N 35°27' E 139°40'1 1.4
2015-Feb-25 06:33N 35°26' E 139°41'7 6.7
2015-Feb-25 05:33N 35°31' E 139°46'5 5.2
2015-Feb-25 04:33N 35°27' E 139°43'2 2.1
2015-Feb-25 03:33N 35°28' E 139°41'0 0.0
2015-Feb-25 02:33N 35°28' E 139°41'0 0.0
2015-Feb-25 01:33N 35°28' E 139°41'0 0.0
2015-Feb-25 00:33N 35°28' E 139°41'0 0.0
2015-Feb-24 23:33N 35°28' E 139°41'1 0.7
2015-Feb-24 22:33N 35°27' E 139°41'2 1.7
2015-Feb-24 21:33N 35°26' E 139°43'3 2.7
2015-Feb-24 20:33N 35°27' E 139°40'  
Track history (hours):
 
Tides and Currents Weather Stations Pressure Air Temp Water Temp Dewpoint Dewpoint Depression Visibility Wind Speed Wind Dir Waves Ship Positions

Sakura

Last reported at 2015-Mar-06 08:33 UTC. Time now 2015-Mar-06 09:05 UTC.
Position N 35°27' E 139°42'.

Length 32 m; draft 3.6 m.

Type: Tug. MMSI: 431101178.

Date/timePositionNaut miles runAvg speedWind from/ knotsBaromVisibWave heightAir tempDewpointWater temp
2015-Mar-06 08:33N 35°27' E 139°42'1 0.8
2015-Mar-06 07:33N 35°26' E 139°41'2 2.1
2015-Mar-06 06:33N 35°27' E 139°39'0 0.0
2015-Mar-06 05:33N 35°27' E 139°39'0 0.0
2015-Mar-06 04:34N 35°27' E 139°39'0 0.0
2015-Mar-06 03:33N 35°27' E 139°39'0 0.0
2015-Mar-06 02:33N 35°27' E 139°39'0 0.0
2015-Mar-06 01:33N 35°27' E 139°39'0 0.0
2015-Mar-06 00:33N 35°27' E 139°39'0 0.0
2015-Mar-05 23:33N 35°27' E 139°39'0 0.0
2015-Mar-05 22:33N 35°27' E 139°39'0 0.0
2015-Mar-05 07:11N 35°27' E 139°39'0 0.0
2015-Mar-05 06:34N 35°27' E 139°39'1 0.7
2015-Mar-05 05:34N 35°27' E 139°39'1 0.8
2015-Mar-05 04:33N 35°27' E 139°40'3 2.7
2015-Mar-05 03:20N 35°28' E 139°44'1 1.1
2015-Mar-05 02:29N 35°27' E 139°44'1 0.9
2015-Mar-05 01:33N 35°28' E 139°44'0 0.0
2015-Mar-05 00:33N 35°28' E 139°44'0 0.5
2015-Mar-04 23:34N 35°28' E 139°43'4 0.2
2015-Mar-04 07:10N 35°27' E 139°39'0 0.0
2015-Mar-04 06:33N 35°27' E 139°39'0 0.0
2015-Mar-04 05:33N 35°27' E 139°39'0 0.0
2015-Mar-04 04:33N 35°27' E 139°39'2 2.1
2015-Mar-04 03:33N 35°26' E 139°41'2 2.1
2015-Mar-04 02:34N 35°27' E 139°39'0 0.0
2015-Mar-04 01:33N 35°27' E 139°39'0 0.0
2015-Mar-04 00:33N 35°27' E 139°39'0 0.0
2015-Mar-03 23:33N 35°27' E 139°39'0 0.0
2015-Mar-03 22:34N 35°27' E 139°39'0 0.0
2015-Mar-03 21:33N 35°27' E 139°39'0 0.0
2015-Mar-03 20:34N 35°27' E 139°39'0 0.0
2015-Mar-03 07:11N 35°27' E 139°39'0 0.3
2015-Mar-03 06:34N 35°27' E 139°39'2 2.0
2015-Mar-03 05:34N 35°27' E 139°41'2 2.1
2015-Mar-03 04:34N 35°27' E 139°39'0 0.0
2015-Mar-03 03:33N 35°27' E 139°39'0 0.0
2015-Mar-03 02:34N 35°27' E 139°39'0 0.0
2015-Mar-03 01:34N 35°27' E 139°39'0 0.0
2015-Mar-03 00:34N 35°27' E 139°39'0 0.0
2015-Mar-02 23:33N 35°27' E 139°39'3 3.0
2015-Mar-02 22:34N 35°25' E 139°41'2 2.3
2015-Mar-02 21:34N 35°27' E 139°40'1 1.1
2015-Mar-02 20:34N 35°27' E 139°39'1 0.1
2015-Mar-02 07:33N 35°27' E 139°40'3 3.3
2015-Mar-02 06:33N 35°24' E 139°41'1 1.1
2015-Mar-02 05:33N 35°24' E 139°42'4 4.2
2015-Mar-02 04:33N 35°27' E 139°39'0 0.0
2015-Mar-02 03:33N 35°27' E 139°39'0 0.0
2015-Mar-02 02:33N 35°27' E 139°39'0 0.0
2015-Mar-02 01:33N 35°27' E 139°39'4 3.7
2015-Mar-02 00:33N 35°28' E 139°43'0 0.3
2015-Mar-01 23:33N 35°28' E 139°44'0 0.0
2015-Mar-01 22:33N 35°28' E 139°44'2 2.1
2015-Mar-01 21:33N 35°27' E 139°41'1 1.3
2015-Mar-01 20:33N 35°27' E 139°40'0 0.0
2015-Feb-28 11:24N 35°27' E 139°40'6 7.1
2015-Feb-28 10:33N 35°31' E 139°45'0 0.4
2015-Feb-28 09:31N 35°30' E 139°46'0 0.0
2015-Feb-28 08:34N 35°30' E 139°46'2 2.4
2015-Feb-28 07:33N 35°29' E 139°43'2 2.3
2015-Feb-28 06:33N 35°27' E 139°43'2 2.0
2015-Feb-28 05:33N 35°28' E 139°40'0 0.0
2015-Feb-28 04:33N 35°28' E 139°40'0 0.0
2015-Feb-28 03:33N 35°28' E 139°40'0 0.0
2015-Feb-28 02:33N 35°28' E 139°40'1 1.0
2015-Feb-28 01:34N 35°27' E 139°40'1 0.6
2015-Feb-28 00:34N 35°27' E 139°40'0 0.0
2015-Feb-27 23:34N 35°27' E 139°40'1 0.0
2015-Feb-26 23:33N 35°27' E 139°40'4 4.1
2015-Feb-26 22:33N 35°26' E 139°45'3 2.6
2015-Feb-26 21:34N 35°27' E 139°42'0 0.1
2015-Feb-26 20:34N 35°27' E 139°42'2 1.6
2015-Feb-26 19:33N 35°28' E 139°40'0 0.0
2015-Feb-26 18:33N 35°28' E 139°40'0 0.0
2015-Feb-26 17:33N 35°28' E 139°40'1 0.7
2015-Feb-26 16:33N 35°27' E 139°41'1 0.7
2015-Feb-26 15:33N 35°28' E 139°40'0 0.0
2015-Feb-26 14:33N 35°28' E 139°40'0 0.0
2015-Feb-26 13:33N 35°28' E 139°40'0 0.0
2015-Feb-26 12:33N 35°28' E 139°40'1 1.0
2015-Feb-26 11:33N 35°27' E 139°41'0 0.5
2015-Feb-26 10:33N 35°27' E 139°41'2 2.0
2015-Feb-26 09:33N 35°29' E 139°39'1 1.5
2015-Feb-26 08:34N 35°27' E 139°39'0 0.0
2015-Feb-26 07:33N 35°27' E 139°39'0 0.4
2015-Feb-26 06:33N 35°27' E 139°40'1 0.7
2015-Feb-26 05:33N 35°27' E 139°40'1 0.8
2015-Feb-26 04:34N 35°27' E 139°39'0 0.0
2015-Feb-26 03:33N 35°27' E 139°39'0 0.0
2015-Feb-26 02:34N 35°27' E 139°39'2 2.0
2015-Feb-26 01:33N 35°27' E 139°42'4 4.0
2015-Feb-26 00:34N 35°24' E 139°38'3 2.9
2015-Feb-25 23:30N 35°24' E 139°42'3 0.2
2015-Feb-25 07:26N 35°27' E 139°40'1 1.4
2015-Feb-25 06:33N 35°26' E 139°41'7 6.7
2015-Feb-25 05:33N 35°31' E 139°46'5 5.2
2015-Feb-25 04:33N 35°27' E 139°43'2 2.1
2015-Feb-25 03:33N 35°28' E 139°41'0 0.0
2015-Feb-25 02:33N 35°28' E 139°41'0 0.0
2015-Feb-25 01:33N 35°28' E 139°41'0 0.0
2015-Feb-25 00:33N 35°28' E 139°41'0 0.0
2015-Feb-24 23:33N 35°28' E 139°41'1 0.7
2015-Feb-24 22:33N 35°27' E 139°41'2 1.7
2015-Feb-24 21:33N 35°26' E 139°43'3 2.7
2015-Feb-24 20:33N 35°27' E 139°40'  

Dump ship's entire track history